createdAt,value
2019-06-20T00:00:38.388Z,99782.00
2019-06-20T00:03:09.751Z,99788.00
2019-06-20T00:05:40.959Z,99791.00
2019-06-20T00:08:12.740Z,99794.00
2019-06-20T00:10:44.064Z,99794.00
2019-06-20T00:13:15.215Z,99819.00
2019-06-20T00:15:46.404Z,99798.00
2019-06-20T00:18:17.576Z,99807.00
2019-06-20T00:20:48.823Z,99804.00
2019-06-20T00:23:19.990Z,99798.00
2019-06-20T00:25:51.169Z,99809.00
2019-06-20T00:28:22.320Z,99811.00
2019-06-20T00:30:53.498Z,99829.00
2019-06-20T00:33:24.650Z,99828.00
2019-06-20T00:35:55.851Z,99820.00
2019-06-20T00:38:27.001Z,99827.00
2019-06-20T00:40:58.160Z,99830.00
2019-06-20T00:43:29.327Z,99822.00
2019-06-20T00:46:00.521Z,99827.00
2019-06-20T00:48:31.794Z,99832.00
2019-06-20T00:51:02.971Z,99832.00
2019-06-20T00:53:34.122Z,99825.00
2019-06-20T00:56:05.720Z,99819.00
2019-06-20T00:58:36.877Z,99826.00
2019-06-20T01:01:08.053Z,99829.00
2019-06-20T01:03:39.414Z,99826.00
2019-06-20T01:06:10.661Z,99825.00
2019-06-20T01:08:41.819Z,99823.00
2019-06-20T01:11:12.998Z,99821.00
2019-06-20T01:13:44.155Z,99812.00
2019-06-20T01:16:15.346Z,99820.00
2019-06-20T01:18:46.506Z,99801.00
2019-06-20T01:21:18.734Z,99803.00
2019-06-20T01:23:49.899Z,99806.00
2019-06-20T01:26:21.080Z,99808.00
2019-06-20T01:28:52.248Z,99810.00
2019-06-20T01:31:23.437Z,99803.00
2019-06-20T01:33:54.596Z,99809.00
2019-06-20T01:36:25.779Z,99808.00
2019-06-20T01:38:56.959Z,99798.00
2019-06-20T01:41:28.155Z,99808.00
2019-06-20T01:43:59.337Z,99801.00
2019-06-20T01:46:30.544Z,99797.00
2019-06-20T01:49:01.703Z,99817.00
2019-06-20T01:51:32.870Z,99819.00
2019-06-20T01:54:04.052Z,99819.00
2019-06-20T01:56:35.218Z,99830.00
2019-06-20T01:59:06.431Z,99832.00
2019-06-20T02:01:37.614Z,99839.00
2019-06-20T02:04:08.789Z,99831.00
2019-06-20T02:06:39.979Z,99835.00
2019-06-20T02:09:11.134Z,99835.00
2019-06-20T02:11:42.320Z,99836.00
2019-06-20T02:14:13.480Z,99840.00
2019-06-20T02:16:44.708Z,99833.00
2019-06-20T02:19:16.961Z,99837.00
2019-06-20T02:21:48.138Z,99834.00
2019-06-20T02:24:19.305Z,99843.00
2019-06-20T02:26:50.501Z,99834.00
2019-06-20T02:29:21.661Z,99824.00
2019-06-20T02:31:52.841Z,99831.00
2019-06-20T02:34:24.008Z,99848.00
2019-06-20T02:36:55.191Z,99854.00
2019-06-20T02:39:26.351Z,99849.00
2019-06-20T02:41:57.534Z,99855.00
2019-06-20T02:44:30.687Z,99857.00
2019-06-20T02:47:01.584Z,99859.00
2019-06-20T02:49:32.753Z,99863.00
2019-06-20T02:52:03.969Z,99866.00
2019-06-20T02:54:35.141Z,99861.00
2019-06-20T02:57:06.315Z,99859.00
2019-06-20T02:59:37.485Z,99862.00
2019-06-20T03:02:08.656Z,99867.00
2019-06-20T03:04:39.813Z,99869.00
2019-06-20T03:07:11.005Z,99876.00
2019-06-20T03:09:42.165Z,99873.00
2019-06-20T03:12:13.348Z,99884.00
2019-06-20T03:14:45.848Z,99888.00
2019-06-20T03:17:18.353Z,99900.00
2019-06-20T03:19:49.502Z,99900.00
2019-06-20T03:22:20.759Z,99908.00
2019-06-20T03:24:51.928Z,99902.00
2019-06-20T03:27:23.124Z,99913.00
2019-06-20T03:29:54.280Z,99912.00
2019-06-20T03:32:25.488Z,99918.00
2019-06-20T03:34:56.656Z,99907.00
2019-06-20T03:37:27.899Z,99913.00
2019-06-20T03:40:20.605Z,99915.00
2019-06-20T03:42:51.926Z,99911.00
2019-06-20T03:45:23.099Z,99904.00
2019-06-20T03:47:54.280Z,99907.00
2019-06-20T03:50:25.429Z,99913.00
2019-06-20T03:53:02.831Z,99923.00
2019-06-20T03:55:34.290Z,99930.00
2019-06-20T03:58:05.489Z,99921.00
2019-06-20T04:00:37.052Z,99923.00
2019-06-20T04:03:09.298Z,99937.00
2019-06-20T04:05:45.070Z,99934.00
2019-06-20T04:08:16.320Z,99940.00
2019-06-20T04:10:47.485Z,99936.00
2019-06-20T04:13:18.692Z,99939.00
2019-06-20T04:15:49.876Z,99940.00
2019-06-20T04:18:21.102Z,99948.00
2019-06-20T04:20:52.302Z,99946.00
2019-06-20T04:23:23.491Z,99946.00
2019-06-20T04:25:54.691Z,99953.00
2019-06-20T04:28:25.876Z,99957.00
2019-06-20T04:30:57.105Z,99964.00
2019-06-20T04:33:28.290Z,99968.00
2019-06-20T04:35:59.468Z,99968.00
2019-06-20T04:38:30.662Z,99968.00
2019-06-20T04:41:01.848Z,99963.00
2019-06-20T04:43:33.055Z,99974.00
2019-06-20T04:46:12.048Z,99961.00
2019-06-20T04:48:43.213Z,99964.00
2019-06-20T04:51:14.377Z,99969.00
2019-06-20T04:53:45.538Z,99966.00
2019-06-20T04:56:16.691Z,99966.00
2019-06-20T04:58:47.882Z,99967.00
2019-06-20T05:01:19.038Z,99973.00
2019-06-20T05:03:50.303Z,99971.00
2019-06-20T05:06:21.449Z,99969.00
2019-06-20T05:08:52.657Z,99982.00
2019-06-20T05:11:23.898Z,99982.00
2019-06-20T05:13:55.086Z,99981.00
2019-06-20T05:16:26.344Z,99985.00
2019-06-20T05:18:57.549Z,99984.00
2019-06-20T05:21:28.697Z,99977.00
2019-06-20T05:23:59.872Z,99986.00
2019-06-20T05:26:31.012Z,99982.00
2019-06-20T05:29:05.316Z,100001.00
2019-06-20T05:31:35.059Z,100003.00
2019-06-20T05:34:06.268Z,100005.00
2019-06-20T05:36:37.430Z,100001.00
2019-06-20T05:39:09.677Z,99997.00
2019-06-20T05:41:40.848Z,100010.00
2019-06-20T05:44:14.081Z,100018.00
2019-06-20T05:46:44.954Z,100014.00
2019-06-20T05:49:16.172Z,100008.00
2019-06-20T05:51:47.361Z,100006.00
2019-06-20T05:54:18.653Z,100007.00
2019-06-20T05:56:49.868Z,100013.00
2019-06-20T05:59:21.145Z,100005.00
2019-06-20T06:01:56.051Z,100009.00
2019-06-20T06:04:25.227Z,100007.00
2019-06-20T06:06:56.371Z,99999.00
2019-06-20T06:09:27.568Z,99997.00
2019-06-20T06:11:58.720Z,100002.00
2019-06-20T06:14:29.932Z,100004.00
2019-06-20T06:17:01.106Z,100001.00
2019-06-20T06:19:32.290Z,99997.00
2019-06-20T06:22:03.492Z,100005.00
2019-06-20T06:24:34.670Z,100005.00
2019-06-20T06:27:05.852Z,100001.00
2019-06-20T06:29:37.024Z,99996.00
2019-06-20T06:32:08.163Z,99996.00
2019-06-20T06:34:39.387Z,99990.00
2019-06-20T06:37:10.557Z,99995.00
2019-06-20T06:39:43.542Z,99995.00
2019-06-20T06:42:14.814Z,100003.00
2019-06-20T06:44:45.998Z,99996.00
2019-06-20T06:47:17.211Z,99999.00
2019-06-20T06:49:48.366Z,100002.00
2019-06-20T06:52:19.573Z,100009.00
2019-06-20T06:54:50.760Z,100002.00
2019-06-20T06:57:22.008Z,100013.00
2019-06-20T06:59:53.228Z,100002.00
2019-06-20T07:02:24.440Z,100016.00
2019-06-20T07:04:55.674Z,100012.00
2019-06-20T07:07:26.846Z,100013.00
2019-06-20T07:09:58.045Z,100026.00
2019-06-20T07:12:29.214Z,100030.00
2019-06-20T07:15:01.537Z,100033.00
2019-06-20T07:17:32.690Z,100034.00
2019-06-20T07:20:03.889Z,100034.00
2019-06-20T07:22:36.260Z,100027.00
2019-06-20T07:25:08.207Z,100026.00
2019-06-20T07:27:39.413Z,100021.00
2019-06-20T07:30:10.614Z,100019.00
2019-06-20T07:32:41.793Z,100033.00
2019-06-20T07:35:12.984Z,100031.00
2019-06-20T07:37:44.140Z,100025.00
2019-06-20T07:40:15.369Z,100034.00
2019-06-20T07:42:46.611Z,100039.00
2019-06-20T07:45:19.166Z,100044.00
2019-06-20T07:47:50.357Z,100041.00
2019-06-20T07:50:21.523Z,100042.00
2019-06-20T07:53:02.091Z,100049.00
2019-06-20T07:55:25.585Z,100050.00
2019-06-20T07:57:56.758Z,100050.00
2019-06-20T08:00:28.015Z,100048.00
2019-06-20T08:02:59.171Z,100047.00
2019-06-20T08:05:30.425Z,100047.00
2019-06-20T08:08:01.635Z,100046.00
2019-06-20T08:10:32.815Z,100038.00
2019-06-20T08:13:04.192Z,100057.00
2019-06-20T08:15:35.374Z,100055.00
2019-06-20T08:18:06.575Z,100044.00
2019-06-20T08:20:37.765Z,100046.00
2019-06-20T08:23:08.976Z,100051.00
2019-06-20T08:25:40.176Z,100054.00
2019-06-20T08:28:11.331Z,100047.00
2019-06-20T08:30:43.027Z,100045.00
2019-06-20T08:33:14.181Z,100045.00
2019-06-20T08:35:45.371Z,100045.00
2019-06-20T08:38:16.567Z,100047.00
2019-06-20T08:40:47.773Z,100028.00
2019-06-20T08:43:18.968Z,100030.00
2019-06-20T08:45:50.228Z,100029.00
2019-06-20T08:48:21.488Z,100028.00
2019-06-20T08:50:52.688Z,100029.00
2019-06-20T08:53:23.877Z,100035.00
2019-06-20T08:55:56.330Z,100035.00
2019-06-20T08:58:27.877Z,100032.00
2019-06-20T09:01:01.346Z,100027.00
2019-06-20T09:03:32.996Z,100038.00
2019-06-20T09:06:04.198Z,100040.00
2019-06-20T09:08:35.357Z,100044.00
2019-06-20T09:11:06.534Z,100045.00
2019-06-20T09:13:40.498Z,100041.00
2019-06-20T09:16:23.946Z,100032.00
2019-06-20T09:18:43.525Z,100040.00
2019-06-20T09:21:14.781Z,100039.00
2019-06-20T09:23:46.017Z,100044.00
2019-06-20T09:26:17.358Z,100046.00
2019-06-20T09:28:52.122Z,100041.00
2019-06-20T09:31:22.624Z,100043.00
2019-06-20T09:33:53.861Z,100044.00
2019-06-20T09:36:26.103Z,100048.00
2019-06-20T09:38:57.892Z,100056.00
2019-06-20T09:41:30.159Z,100049.00
2019-06-20T09:44:03.074Z,100039.00
2019-06-20T09:46:35.586Z,100043.00
2019-06-20T09:49:06.739Z,100045.00
2019-06-20T09:51:37.943Z,100042.00
2019-06-20T09:54:09.131Z,100044.00
2019-06-20T09:56:40.317Z,100054.00
2019-06-20T09:59:26.873Z,100039.00
2019-06-20T10:01:44.351Z,100054.00
2019-06-20T10:04:15.540Z,100059.00
2019-06-20T10:06:47.415Z,100050.00
2019-06-20T10:09:19.758Z,100052.00
2019-06-20T10:11:51.914Z,100051.00
2019-06-20T10:14:23.182Z,100060.00
2019-06-20T10:16:55.614Z,100058.00
2019-06-20T10:19:27.339Z,100046.00
2019-06-20T10:21:58.653Z,100041.00
2019-06-20T10:24:30.005Z,100034.00
2019-06-20T10:27:01.342Z,100046.00
2019-06-20T10:29:32.598Z,100055.00
2019-06-20T10:32:03.981Z,100052.00
2019-06-20T10:34:35.210Z,100054.00
2019-06-20T10:37:06.386Z,100050.00
2019-06-20T10:39:37.549Z,100037.00
2019-06-20T10:42:08.762Z,100042.00
2019-06-20T10:44:44.303Z,100040.00
2019-06-20T10:47:15.869Z,100039.00
2019-06-20T10:49:47.778Z,100031.00
2019-06-20T10:52:19.112Z,100035.00
2019-06-20T10:54:51.441Z,100037.00
2019-06-20T10:57:22.875Z,100043.00
2019-06-20T10:59:54.051Z,100036.00
2019-06-20T11:02:25.264Z,100053.00
2019-06-20T11:04:56.458Z,100048.00
2019-06-20T11:07:28.196Z,100045.00
2019-06-20T11:09:59.380Z,100044.00
2019-06-20T11:12:42.604Z,100050.00
2019-06-20T11:15:03.434Z,100048.00
2019-06-20T11:17:34.625Z,100052.00
2019-06-20T11:20:06.816Z,100057.00
2019-06-20T11:22:39.783Z,100053.00
2019-06-20T11:25:13.912Z,100053.00
2019-06-20T11:27:45.112Z,100043.00
2019-06-20T11:30:18.300Z,100038.00
2019-06-20T11:32:49.652Z,100047.00
2019-06-20T11:35:20.911Z,100038.00
2019-06-20T11:37:52.309Z,100035.00
2019-06-20T11:40:23.599Z,100036.00
2019-06-20T11:42:54.925Z,100041.00
2019-06-20T11:45:26.217Z,100041.00
2019-06-20T11:47:57.525Z,100040.00
2019-06-20T11:50:28.790Z,100047.00
2019-06-20T11:53:00.178Z,100052.00
2019-06-20T11:55:31.439Z,100055.00
2019-06-20T11:58:02.799Z,100047.00
2019-06-20T12:00:34.052Z,100046.00
2019-06-20T12:03:05.368Z,100050.00
2019-06-20T12:05:38.451Z,100038.00
2019-06-20T12:08:10.783Z,100035.00
2019-06-20T12:10:43.085Z,100037.00
2019-06-20T12:13:14.411Z,100039.00
2019-06-20T12:15:46.680Z,100030.00
2019-06-20T12:18:17.997Z,100033.00
2019-06-20T12:20:49.171Z,100017.00
2019-06-20T12:23:20.366Z,100019.00
2019-06-20T12:25:51.521Z,100013.00
2019-06-20T12:28:22.870Z,100010.00
2019-06-20T12:30:54.077Z,100011.00
2019-06-20T12:33:25.285Z,100015.00
2019-06-20T12:35:56.516Z,100008.00
2019-06-20T12:38:27.687Z,99998.00
2019-06-20T12:40:59.000Z,99996.00
2019-06-20T12:43:30.437Z,99991.00
2019-06-20T12:46:02.684Z,99998.00
2019-06-20T12:48:33.875Z,99995.00
2019-06-20T12:51:05.041Z,100000.00
2019-06-20T12:53:37.756Z,99989.00
2019-06-20T12:56:09.160Z,99988.00
2019-06-20T12:58:40.741Z,99995.00
2019-06-20T13:01:13.186Z,99985.00
2019-06-20T13:03:44.371Z,99981.00
2019-06-20T13:06:15.712Z,99985.00
2019-06-20T13:08:47.383Z,99983.00
2019-06-20T13:11:18.821Z,99975.00
2019-06-20T13:13:50.101Z,99974.00
2019-06-20T13:16:21.263Z,99975.00
2019-06-20T13:18:52.896Z,99979.00
2019-06-20T13:21:24.213Z,99969.00
2019-06-20T13:23:55.414Z,99979.00
2019-06-20T13:26:26.580Z,99965.00
2019-06-20T13:29:04.054Z,99966.00
2019-06-20T13:31:30.638Z,99968.00
2019-06-20T13:34:01.817Z,99965.00
2019-06-20T13:36:33.238Z,99960.00
2019-06-20T13:39:06.209Z,99966.00
2019-06-20T13:41:39.445Z,99961.00
2019-06-20T13:44:10.843Z,99956.00
2019-06-20T13:46:43.309Z,99949.00
2019-06-20T13:49:15.193Z,99939.00
2019-06-20T13:51:47.698Z,99947.00
2019-06-20T13:54:19.006Z,99956.00
2019-06-20T13:56:50.172Z,99959.00
2019-06-20T13:59:21.412Z,99962.00
2019-06-20T14:02:05.875Z,99958.00
2019-06-20T14:04:25.535Z,99951.00
2019-06-20T14:06:56.938Z,99968.00
2019-06-20T14:09:28.209Z,99975.00
2019-06-20T14:11:59.366Z,99971.00
2019-06-20T14:14:30.560Z,99984.00
2019-06-20T14:17:01.798Z,100035.00
2019-06-20T14:19:33.300Z,100069.00
2019-06-20T14:22:04.489Z,100075.00
2019-06-20T14:24:35.688Z,100074.00
2019-06-20T14:27:06.867Z,100039.00
2019-06-20T14:29:38.072Z,100064.00
2019-06-20T14:32:21.478Z,100054.00
2019-06-20T14:34:43.668Z,100050.00
2019-06-20T14:37:14.964Z,100049.00
2019-06-20T14:39:46.184Z,100036.00
2019-06-20T14:42:17.459Z,100040.00
2019-06-20T14:44:49.834Z,100044.00
2019-06-20T14:47:21.219Z,100053.00
2019-06-20T14:49:52.430Z,100044.00
2019-06-20T14:52:24.033Z,100026.00
2019-06-20T14:54:55.341Z,100030.00
2019-06-20T14:57:26.511Z,100022.00
2019-06-20T14:59:57.697Z,100017.00
2019-06-20T15:02:37.888Z,100025.00
2019-06-20T15:05:01.966Z,100023.00
2019-06-20T15:07:33.620Z,100025.00
2019-06-20T15:10:06.196Z,100023.00
2019-06-20T15:12:38.691Z,100022.00
2019-06-20T15:15:09.997Z,100023.00
2019-06-20T15:17:41.163Z,100017.00
2019-06-20T15:20:12.388Z,100016.00
2019-06-20T15:22:43.766Z,100026.00
2019-06-20T15:25:15.288Z,100028.00
2019-06-20T15:27:48.107Z,100036.00
2019-06-20T15:30:19.647Z,100026.00
2019-06-20T15:33:04.276Z,100029.00
2019-06-20T15:35:24.017Z,100024.00
2019-06-20T15:37:55.751Z,100023.00
2019-06-20T15:40:26.932Z,100022.00
2019-06-20T15:42:58.949Z,100022.00
2019-06-20T15:45:30.344Z,100025.00
2019-06-20T15:48:01.732Z,100030.00
2019-06-20T15:50:33.209Z,100026.00
2019-06-20T15:53:04.521Z,100026.00
2019-06-20T15:55:35.871Z,100019.00
2019-06-20T15:58:07.053Z,100025.00
2019-06-20T16:00:38.245Z,100027.00
2019-06-20T16:03:11.353Z,100031.00
2019-06-20T16:05:42.546Z,100025.00
2019-06-20T16:08:14.237Z,100038.00
2019-06-20T16:10:45.454Z,100027.00
2019-06-20T16:13:18.181Z,100033.00
2019-06-20T16:15:49.481Z,100026.00
2019-06-20T16:18:20.650Z,100025.00
2019-06-20T16:20:52.740Z,100029.00
2019-06-20T16:23:23.924Z,100026.00
2019-06-20T16:25:55.416Z,100033.00
2019-06-20T16:28:28.165Z,100027.00
2019-06-20T16:31:08.253Z,100024.00
2019-06-20T16:33:32.465Z,100025.00
2019-06-20T16:36:04.065Z,100023.00
2019-06-20T16:38:35.369Z,100023.00
2019-06-20T16:41:06.638Z,100032.00
2019-06-20T16:43:37.838Z,100036.00
2019-06-20T16:46:09.030Z,100040.00
2019-06-20T16:48:40.301Z,100040.00
2019-06-20T16:51:11.663Z,100043.00
2019-06-20T16:53:42.879Z,100045.00
2019-06-20T16:56:14.053Z,100052.00
2019-06-20T16:58:45.504Z,100059.00
2019-06-20T17:01:16.707Z,100073.00
2019-06-20T17:03:47.954Z,100074.00
2019-06-20T17:06:19.141Z,100073.00
2019-06-20T17:08:50.317Z,100082.00
2019-06-20T17:11:21.595Z,100081.00
2019-06-20T17:13:52.756Z,100086.00
2019-06-20T17:16:25.131Z,100089.00
2019-06-20T17:18:56.734Z,100096.00
2019-06-20T17:21:28.178Z,100094.00
2019-06-20T17:23:59.402Z,100094.00
2019-06-20T17:26:30.740Z,100092.00
2019-06-20T17:29:02.038Z,100096.00
2019-06-20T17:31:33.370Z,100086.00
2019-06-20T17:34:04.597Z,100091.00
2019-06-20T17:36:35.805Z,100095.00
2019-06-20T17:39:08.788Z,100097.00
2019-06-20T17:41:54.449Z,100106.00
2019-06-20T17:44:14.163Z,100109.00
2019-06-20T17:46:45.423Z,100113.00
2019-06-20T17:49:16.872Z,100112.00
2019-06-20T17:51:48.075Z,100119.00
2019-06-20T17:54:19.284Z,100124.00
2019-06-20T17:56:50.451Z,100124.00
2019-06-20T17:59:22.773Z,100132.00
2019-06-20T18:01:54.821Z,100134.00
2019-06-20T18:04:26.872Z,100131.00
2019-06-20T18:06:58.261Z,100131.00
2019-06-20T18:09:30.522Z,100138.00
2019-06-20T18:12:03.288Z,100147.00
2019-06-20T18:14:34.630Z,100145.00
2019-06-20T18:17:05.899Z,100147.00
2019-06-20T18:19:37.103Z,100161.00
2019-06-20T18:22:08.275Z,100173.00
2019-06-20T18:24:39.452Z,100170.00
2019-06-20T18:27:10.650Z,100177.00
2019-06-20T18:29:41.881Z,100174.00
2019-06-20T18:32:13.101Z,100174.00
2019-06-20T18:35:00.517Z,100185.00
2019-06-20T18:37:30.525Z,100187.00
2019-06-20T18:39:49.991Z,100190.00
2019-06-20T18:42:22.008Z,100198.00
2019-06-20T18:44:53.247Z,100207.00
2019-06-20T18:47:24.444Z,100215.00
2019-06-20T18:49:55.620Z,100228.00
2019-06-20T18:52:27.900Z,100232.00
2019-06-20T18:54:59.074Z,100227.00
2019-06-20T18:57:30.264Z,100234.00
2019-06-20T19:00:03.368Z,100232.00
2019-06-20T19:02:34.670Z,100242.00
2019-06-20T19:05:10.998Z,100238.00
2019-06-20T19:07:42.298Z,100256.00
2019-06-20T19:10:13.483Z,100256.00
2019-06-20T19:12:44.710Z,100247.00
2019-06-20T19:15:16.187Z,100248.00
2019-06-20T19:17:47.370Z,100249.00
2019-06-20T19:20:18.548Z,100251.00
2019-06-20T19:22:49.760Z,100258.00
2019-06-20T19:25:20.953Z,100250.00
2019-06-20T19:27:52.282Z,100249.00
2019-06-20T19:30:41.070Z,100259.00
2019-06-20T19:33:12.814Z,100257.00
2019-06-20T19:35:44.000Z,100270.00
2019-06-20T19:38:15.482Z,100267.00
2019-06-20T19:40:48.270Z,100270.00
2019-06-20T19:43:19.476Z,100271.00
2019-06-20T19:45:50.646Z,100275.00
2019-06-20T19:48:21.803Z,100279.00
2019-06-20T19:50:53.003Z,100277.00
2019-06-20T19:53:24.181Z,100285.00
2019-06-20T19:55:55.377Z,100292.00
2019-06-20T19:58:26.551Z,100290.00
2019-06-20T20:00:57.805Z,100294.00
2019-06-20T20:03:28.969Z,100288.00
2019-06-20T20:06:00.199Z,100296.00
2019-06-20T20:08:31.363Z,100307.00
2019-06-20T20:11:02.662Z,100305.00
2019-06-20T20:13:33.844Z,100310.00
2019-06-20T20:16:05.102Z,100313.00
2019-06-20T20:18:36.251Z,100324.00
2019-06-20T20:21:07.473Z,100320.00
2019-06-20T20:23:38.627Z,100325.00
2019-06-20T20:26:09.829Z,100330.00
2019-06-20T20:28:40.989Z,100323.00
2019-06-20T20:31:12.166Z,100332.00
2019-06-20T20:33:43.392Z,100333.00
2019-06-20T20:36:24.443Z,100331.00
2019-06-20T20:38:47.470Z,100330.00
2019-06-20T20:41:18.653Z,100332.00
2019-06-20T20:43:49.917Z,100333.00
2019-06-20T20:46:21.103Z,100335.00
2019-06-20T20:48:52.254Z,100335.00
2019-06-20T20:51:23.414Z,100326.00
2019-06-20T20:53:54.685Z,100321.00
2019-06-20T20:56:26.029Z,100326.00
2019-06-20T20:58:58.311Z,100330.00
2019-06-20T21:01:35.505Z,100338.00
2019-06-20T21:04:05.532Z,100334.00
2019-06-20T21:06:36.715Z,100332.00
2019-06-20T21:09:09.256Z,100335.00
2019-06-20T21:11:41.391Z,100337.00
2019-06-20T21:14:12.589Z,100333.00
2019-06-20T21:16:43.782Z,100335.00
2019-06-20T21:19:14.994Z,100338.00
2019-06-20T21:21:46.196Z,100337.00
2019-06-20T21:24:17.400Z,100343.00
2019-06-20T21:26:50.093Z,100335.00
2019-06-20T21:29:21.530Z,100341.00
2019-06-20T21:31:52.697Z,100341.00
2019-06-20T21:34:24.974Z,100345.00
2019-06-20T21:36:56.368Z,100345.00
2019-06-20T21:39:27.546Z,100345.00
2019-06-20T21:41:58.704Z,100349.00
2019-06-20T21:44:30.139Z,100354.00
2019-06-20T21:47:01.307Z,100363.00
2019-06-20T21:49:32.492Z,100350.00
2019-06-20T21:52:04.124Z,100354.00
2019-06-20T21:54:35.547Z,100359.00
2019-06-20T21:57:07.926Z,100360.00
2019-06-20T21:59:39.454Z,100367.00
2019-06-20T22:02:11.688Z,100370.00
2019-06-20T22:04:54.144Z,100378.00
2019-06-20T22:07:16.378Z,100379.00
2019-06-20T22:09:47.721Z,100379.00
2019-06-20T22:12:19.063Z,100385.00
2019-06-20T22:14:50.534Z,100385.00
2019-06-20T22:17:22.970Z,100380.00
2019-06-20T22:19:54.336Z,100385.00
2019-06-20T22:22:25.892Z,100381.00
2019-06-20T22:24:57.319Z,100380.00
2019-06-20T22:27:28.710Z,100382.00
2019-06-20T22:30:03.693Z,100385.00
2019-06-20T22:32:33.770Z,100392.00
2019-06-20T22:35:05.834Z,100390.00
2019-06-20T22:37:37.232Z,100391.00
2019-06-20T22:40:08.741Z,100384.00
2019-06-20T22:42:40.116Z,100388.00
2019-06-20T22:45:12.292Z,100389.00
2019-06-20T22:47:43.598Z,100381.00
2019-06-20T22:50:15.716Z,100381.00
2019-06-20T22:52:47.027Z,100381.00
2019-06-20T22:55:18.456Z,100385.00
2019-06-20T22:57:49.720Z,100393.00
2019-06-20T23:00:21.129Z,100389.00
2019-06-20T23:02:52.543Z,100391.00
2019-06-20T23:05:23.955Z,100392.00
2019-06-20T23:07:55.297Z,100404.00
2019-06-20T23:10:26.502Z,100401.00
2019-06-20T23:12:57.674Z,100402.00
2019-06-20T23:15:28.861Z,100411.00
2019-06-20T23:18:00.031Z,100417.00
2019-06-20T23:20:31.225Z,100430.00
2019-06-20T23:23:02.403Z,100429.00
2019-06-20T23:25:34.578Z,100419.00
2019-06-20T23:28:05.830Z,100422.00
2019-06-20T23:30:37.019Z,100436.00
2019-06-20T23:33:08.196Z,100427.00
2019-06-20T23:35:39.397Z,100420.00
2019-06-20T23:38:10.552Z,100419.00
2019-06-20T23:40:41.866Z,100424.00
2019-06-20T23:43:14.055Z,100419.00
2019-06-20T23:45:45.245Z,100425.00
2019-06-20T23:48:16.417Z,100420.00
2019-06-20T23:50:47.723Z,100419.00
2019-06-20T23:53:23.252Z,100423.00
2019-06-20T23:55:55.342Z,100424.00
2019-06-20T23:58:26.639Z,100425.00
